Time;durP1;ratioP1;P1;durP2;ratioP2;P2;SDS_P1;SDS_P2;PMS_P1;PMS_P2;Temp;Humidity;BMP_temperature;BMP_pressure;BME280_temperature;BME280_humidity;BME280_pressure;Samples;Min_cycle;Max_cycle;Signal;HPM_P1;HPM_P2
2021/05/17 00:02:27;;;;;;;4.77;3.17;;;;;;;11.02;100.00;99361.03;4881103;29;20319;-77
2021/05/17 00:04:53;;;;;;;4.80;3.13;;;;;;;11.01;100.00;99373.81;4882123;29;20192;-76
2021/05/17 00:07:19;;;;;;;3.43;3.13;;;;;;;11.08;100.00;99365.22;4896788;29;20240;-77
2021/05/17 00:09:45;;;;;;;4.97;3.03;;;;;;;11.12;100.00;99366.22;4897399;29;20217;-77
2021/05/17 00:12:11;;;;;;;4.73;2.97;;;;;;;11.13;100.00;99367.84;4912809;29;20634;-78
2021/05/17 00:14:37;;;;;;;4.53;3.00;;;;;;;11.08;100.00;99373.38;4913133;29;20184;-76
2021/05/17 00:17:03;;;;;;;3.90;2.70;;;;;;;11.10;100.00;99368.44;4894982;29;20622;-77
2021/05/17 00:19:31;;;;;;;5.33;3.07;;;;;;;11.15;100.00;99361.81;4881640;29;20184;-76
2021/05/17 00:22:03;;;;;;;4.33;2.67;;;;;;;11.17;100.00;99370.44;4879791;29;20892;-77
2021/05/17 00:24:31;;;;;;;3.67;2.93;;;;;;;11.13;100.00;99374.06;4897641;29;20291;-77
2021/05/17 00:27:01;;;;;;;4.10;2.70;;;;;;;11.10;100.00;99379.31;4881442;29;20245;-76
2021/05/17 00:29:29;;;;;;;4.30;2.90;;;;;;;10.97;100.00;99380.16;4896941;29;20269;-77
2021/05/17 00:31:55;;;;;;;3.30;2.97;;;;;;;11.07;100.00;99371.78;4895719;29;20235;-77
2021/05/17 00:34:25;;;;;;;3.90;2.87;;;;;;;11.07;100.00;99363.66;4866700;29;20199;-78
2021/05/17 00:36:53;;;;;;;5.67;2.80;;;;;;;11.00;100.00;99371.41;4881089;29;20220;-77
2021/05/17 00:39:22;;;;;;;3.63;3.00;;;;;;;11.06;100.00;99367.47;4881801;29;20188;-77
2021/05/17 00:41:47;;;;;;;3.27;2.87;;;;;;;10.93;100.00;99373.72;4895489;29;20247;-77
2021/05/17 00:44:13;;;;;;;3.67;2.93;;;;;;;10.93;100.00;99373.72;4896857;29;20251;-77
2021/05/17 00:46:41;;;;;;;3.97;2.77;;;;;;;10.91;100.00;99376.75;4865479;29;20299;-77
2021/05/17 00:49:09;;;;;;;4.57;3.00;;;;;;;10.96;100.00;99379.34;4881895;29;20207;-77
2021/05/17 00:51:37;;;;;;;3.63;2.90;;;;;;;11.01;100.00;99376.53;4899378;29;20227;-77
2021/05/17 00:54:05;;;;;;;3.27;2.97;;;;;;;10.74;100.00;99369.56;4876590;29;20287;-78
2021/05/17 00:56:34;;;;;;;5.50;3.10;;;;;;;10.77;100.00;99372.47;4897514;29;20283;-77
2021/05/17 00:59:02;;;;;;;6.50;3.40;;;;;;;10.82;100.00;99372.34;4900405;29;20271;-78
2021/05/17 01:01:31;;;;;;;4.33;3.33;;;;;;;10.70;100.00;99374.78;4912913;29;20228;-77
2021/05/17 01:03:56;;;;;;;4.10;3.30;;;;;;;10.61;100.00;99365.75;4904146;29;20210;-77
2021/05/17 01:06:33;;;;;;;3.90;3.50;;;;;;;10.62;100.00;99370.09;4920668;29;20230;-77
2021/05/17 01:09:00;;;;;;;5.57;3.50;;;;;;;10.72;100.00;99372.56;4919212;29;20207;-78
2021/05/17 01:11:34;;;;;;;4.13;3.40;;;;;;;10.69;100.00;99372.38;4918765;29;20695;-77
2021/05/17 01:14:05;;;;;;;5.13;3.37;;;;;;;10.68;100.00;99377.00;4904154;29;20203;-77
2021/05/17 01:16:34;;;;;;;4.97;3.13;;;;;;;10.72;100.00;99369.84;4918732;29;20231;-77
2021/05/17 01:19:11;;;;;;;7.37;4.00;;;;;;;10.60;100.00;99375.00;4919406;29;20224;-77
2021/05/17 01:21:42;;;;;;;3.93;3.43;;;;;;;10.43;100.00;99380.22;4917714;29;20255;-77
2021/05/17 01:24:09;;;;;;;4.47;3.27;;;;;;;10.47;100.00;99369.56;4903347;29;20310;-76
2021/05/17 01:26:35;;;;;;;3.80;3.40;;;;;;;10.19;100.00;99378.03;4902887;29;20660;-77
2021/05/17 01:29:05;;;;;;;7.30;3.80;;;;;;;10.29;100.00;99375.13;4934885;29;20674;-77
2021/05/17 01:31:36;;;;;;;8.13;4.00;;;;;;;10.18;100.00;99373.69;4918919;29;20235;-76
2021/05/17 01:34:09;;;;;;;4.57;3.63;;;;;;;10.00;100.00;99374.59;4918341;29;20608;-76
2021/05/17 01:36:36;;;;;;;6.83;3.73;;;;;;;9.95;100.00;99373.91;4919430;29;20231;-76
2021/05/17 01:39:02;;;;;;;5.37;3.67;;;;;;;10.00;100.00;99380.81;4905123;29;20210;-77
2021/05/17 01:41:33;;;;;;;4.23;3.83;;;;;;;9.86;100.00;99383.78;4936938;29;20231;-77
2021/05/17 01:43:58;;;;;;;4.07;3.63;;;;;;;9.75;100.00;99385.06;4905549;29;20234;-76
2021/05/17 01:46:32;;;;;;;5.10;3.53;;;;;;;9.80;100.00;99379.56;4907332;29;20331;-76
2021/05/17 01:49:07;;;;;;;4.33;3.93;;;;;;;9.77;100.00;99383.66;4905450;29;20192;-77
2021/05/17 01:51:37;;;;;;;4.80;4.13;;;;;;;9.73;100.00;99385.34;4934460;29;20646;-77
2021/05/17 01:54:03;;;;;;;8.57;4.70;;;;;;;9.92;100.00;99378.00;4934730;29;20184;-77
2021/05/17 01:56:33;;;;;;;7.03;4.23;;;;;;;9.95;100.00;99380.13;4918850;29;20896;-77
2021/05/17 01:59:14;;;;;;;5.57;4.27;;;;;;;9.94;100.00;99377.69;4905334;29;20286;-77
2021/05/17 02:01:44;;;;;;;4.97;4.37;;;;;;;9.78;100.00;99382.56;4917708;29;20335;-77
2021/05/17 02:04:15;;;;;;;8.33;4.70;;;;;;;9.78;100.00;99382.56;4918318;29;20215;-77
2021/05/17 02:06:44;;;;;;;6.73;5.20;;;;;;;9.74;100.00;99386.16;4902570;29;20235;-76
2021/05/17 02:09:10;;;;;;;4.90;4.37;;;;;;;9.79;100.00;99376.03;4918503;29;20183;-76
2021/05/17 02:11:38;;;;;;;7.80;5.40;;;;;;;9.72;100.00;99378.31;4917354;29;20363;-76
2021/05/17 02:14:20;;;;;;;7.30;4.93;;;;;;;9.65;100.00;99368.97;4918926;29;20187;-76
2021/05/17 02:16:51;;;;;;;6.70;5.00;;;;;;;9.56;100.00;99383.50;4932979;29;20235;-77
2021/05/17 02:19:25;;;;;;;5.47;4.80;;;;;;;9.47;100.00;99379.84;4934477;29;20238;-77
2021/05/17 02:21:55;;;;;;;5.50;4.77;;;;;;;9.41;100.00;99376.41;4916624;29;20230;-77
2021/05/17 02:24:23;;;;;;;5.40;4.40;;;;;;;9.38;100.00;99376.22;4918102;29;20234;-77
2021/05/17 02:26:50;;;;;;;5.33;4.20;;;;;;;9.38;100.00;99373.50;4901609;29;20697;-76
2021/05/17 02:29:16;;;;;;;5.30;4.20;;;;;;;9.39;100.00;99380.53;4917852;29;20724;-77
2021/05/17 02:31:44;;;;;;;6.87;4.60;;;;;;;9.64;100.00;99380.91;4916871;29;20215;-76
2021/05/17 02:34:10;;;;;;;6.03;4.70;;;;;;;9.74;100.00;99380.72;4902372;29;20263;-77
2021/05/17 02:36:40;;;;;;;5.13;4.63;;;;;;;9.81;100.00;99381.16;4917505;29;20255;-77
2021/05/17 02:39:10;;;;;;;5.70;4.37;;;;;;;9.74;100.00;99381.56;4917880;29;20577;-76
2021/05/17 02:41:36;;;;;;;6.60;4.77;;;;;;;9.78;100.00;99382.56;4932723;29;20234;-76
2021/05/17 02:44:05;;;;;;;7.07;4.70;;;;;;;9.81;100.00;99381.94;4885742;29;20764;-76
2021/05/17 02:46:33;;;;;;;6.00;4.40;;;;;;;9.75;100.00;99387.78;4916991;29;20257;-76
2021/05/17 02:48:59;;;;;;;6.53;4.43;;;;;;;9.80;100.00;99388.50;4933000;29;20192;-76
2021/05/17 02:51:25;;;;;;;7.03;4.43;;;;;;;9.58;100.00;99392.97;4885464;29;20602;-76
2021/05/17 02:53:52;;;;;;;5.07;3.87;;;;;;;9.56;100.00;99394.34;4917194;29;20188;-75
2021/05/17 02:57:13;;;;;;;6.60;3.90;;;;;;;9.70;100.00;99393.28;4902385;29;20227;-76
2021/05/17 03:00:10;;;;;;;4.30;3.80;;;;;;;9.62;100.00;99400.19;4909898;29;20210;-76
2021/05/17 03:02:51;;;;;;;4.67;4.03;;;;;;;9.49;100.00;99399.34;4901128;29;20224;-76
2021/05/17 03:05:17;;;;;;;5.73;4.13;;;;;;;9.50;100.00;99406.38;4882550;29;20192;-77
2021/05/17 03:07:43;;;;;;;4.70;4.30;;;;;;;9.55;100.00;99403.59;4882990;29;20188;-76
2021/05/17 03:10:14;;;;;;;5.33;4.13;;;;;;;9.67;100.00;99404.72;4897888;29;20189;-76
2021/05/17 03:12:40;;;;;;;6.23;4.27;;;;;;;9.71;100.00;99401.13;4882521;29;20199;-76
2021/05/17 03:15:12;;;;;;;4.50;4.10;;;;;;;9.66;100.00;99406.63;4898670;29;20181;-76
2021/05/17 03:17:38;;;;;;;4.77;4.37;;;;;;;9.74;100.00;99400.53;4898370;29;20982;-76
2021/05/17 03:20:05;;;;;;;5.07;3.83;;;;;;;9.73;100.00;99398.91;4886024;29;20203;-77
2021/05/17 03:22:30;;;;;;;5.33;4.00;;;;;;;9.77;100.00;99402.63;4897837;29;20310;-77
2021/05/17 03:24:58;;;;;;;5.90;3.97;;;;;;;9.76;100.00;99405.63;4916845;29;20184;-76
2021/05/17 03:27:26;;;;;;;5.50;4.10;;;;;;;9.81;100.00;99409.06;4897236;29;20274;-77
2021/05/17 03:29:52;;;;;;;6.33;4.00;;;;;;;9.75;100.00;99414.88;4933980;29;20255;-76
2021/05/17 03:32:18;;;;;;;5.63;3.90;;;;;;;9.84;100.00;99415.81;4931490;29;20310;-76
2021/05/17 03:34:46;;;;;;;4.67;3.80;;;;;;;9.80;100.00;99415.59;4917205;29;20275;-77
2021/05/17 03:37:12;;;;;;;4.40;3.60;;;;;;;10.05;100.00;99416.00;4916355;29;20795;-75
2021/05/17 03:39:43;;;;;;;4.10;3.70;;;;;;;10.19;100.00;99411.38;4933806;29;20184;-75
2021/05/17 03:42:09;;;;;;;5.97;4.17;;;;;;;10.28;100.00;99406.09;4926308;29;20222;-74
2021/05/17 03:44:34;;;;;;;5.20;3.87;;;;;;;10.32;100.00;99409.81;4899728;29;20203;-75
2021/05/17 03:47:02;;;;;;;5.33;3.80;;;;;;;10.37;100.00;99409.72;4916255;29;20245;-75
2021/05/17 03:49:28;;;;;;;4.40;4.00;;;;;;;10.43;100.00;99407.38;4900813;29;20697;-76
2021/05/17 03:51:53;;;;;;;4.20;3.47;;;;;;;10.56;100.00;99401.13;4899944;29;20282;-74
2021/05/17 03:54:24;;;;;;;5.20;3.80;;;;;;;10.61;100.00;99403.75;4932494;29;20689;-74
2021/05/17 03:56:54;;;;;;;4.17;3.67;;;;;;;10.64;100.00;99397.75;4915985;29;20232;-74
2021/05/17 03:59:22;;;;;;;4.50;4.10;;;;;;;10.72;100.00;99405.16;4916668;29;20187;-74
2021/05/17 04:01:49;;;;;;;5.30;4.50;;;;;;;10.87;100.00;99402.13;4931032;29;20227;-74
2021/05/17 04:04:16;;;;;;;4.87;3.93;;;;;;;11.25;100.00;99407.75;4900489;29;20215;-75
2021/05/17 04:06:58;;;;;;;4.40;4.00;;;;;;;11.07;100.00;99412.56;4900197;29;20227;-75
2021/05/17 04:14:52;;;;;;;3.67;3.37;;;;;;;11.07;100.00;99418.00;4933957;29;20247;-74
2021/05/17 04:17:17;;;;;;;5.37;4.13;;;;;;;11.20;100.00;99418.75;4899895;29;20290;-75
2021/05/17 04:19:47;;;;;;;5.60;3.97;;;;;;;10.78;100.00;99421.03;4932117;29;20179;-75
2021/05/17 04:22:15;;;;;;;4.80;3.60;;;;;;;10.77;100.00;99418.66;4914974;29;20235;-75
2021/05/17 04:24:41;;;;;;;4.20;3.77;;;;;;;10.73;100.00;99423.03;4900420;29;20673;-73
2021/05/17 04:27:09;;;;;;;3.70;3.30;;;;;;;10.73;100.00;99428.47;4915956;29;20262;-74
2021/05/17 04:29:35;;;;;;;6.07;3.90;;;;;;;10.82;100.00;99426.66;4916085;29;20346;-75
2021/05/17 04:32:03;;;;;;;4.43;3.77;;;;;;;10.82;100.00;99418.50;4931989;29;20231;-75
2021/05/17 04:34:32;;;;;;;3.77;3.37;;;;;;;10.94;100.00;99425.03;4916401;29;20713;-74
2021/05/17 04:36:59;;;;;;;4.13;3.73;;;;;;;11.07;100.00;99423.41;4910759;29;20223;-75
2021/05/17 04:39:32;;;;;;;4.53;3.90;;;;;;;11.19;100.00;99422.59;4904618;29;20196;-72
2021/05/17 04:42:00;;;;;;;5.50;4.70;;;;;;;11.27;100.00;99427.28;4911487;29;20545;-72
2021/05/17 04:44:28;;;;;;;6.40;4.03;;;;;;;11.38;100.00;99436.81;4901268;29;20211;-73
2021/05/17 04:46:54;;;;;;;3.90;3.47;;;;;;;11.34;100.00;99438.53;4915161;29;20255;-72
2021/05/17 04:49:19;;;;;;;4.00;3.70;;;;;;;11.52;100.00;99434.91;4931894;29;20191;-73
2021/05/17 04:51:47;;;;;;;5.23;3.40;;;;;;;11.35;100.00;99442.06;4883239;29;20656;-74
2021/05/17 04:54:16;;;;;;;5.33;3.80;;;;;;;11.23;100.00;99444.53;4915591;29;20235;-73
2021/05/17 04:56:44;;;;;;;4.87;4.40;;;;;;;11.16;100.00;99450.34;4915340;29;20231;-74
2021/05/17 04:59:09;;;;;;;4.10;3.70;;;;;;;11.29;100.00;99457.69;4915858;29;20670;-73
2021/05/17 05:01:35;;;;;;;5.10;4.10;;;;;;;11.35;100.00;99463.81;4897737;29;20310;-72
2021/05/17 05:04:05;;;;;;;3.80;3.50;;;;;;;11.41;100.00;99460.69;4896573;29;20208;-73
2021/05/17 05:06:31;;;;;;;4.47;4.10;;;;;;;11.51;100.00;99465.91;4912186;29;20283;-72
2021/05/17 05:08:57;;;;;;;4.23;3.77;;;;;;;11.72;100.00;99464.31;4902034;29;20258;-73
2021/05/17 05:11:28;;;;;;;4.57;3.87;;;;;;;11.70;100.00;99461.09;4892026;29;20626;-73
2021/05/17 05:13:53;;;;;;;6.53;4.07;;;;;;;12.19;100.00;99469.94;4915528;29;20202;-72
2021/05/17 05:16:19;;;;;;;4.80;4.40;;;;;;;12.38;100.00;99471.31;4914970;29;20788;-75
2021/05/17 05:18:47;;;;;;;16.70;15.03;;;;;;;12.24;100.00;99470.59;4931629;29;20188;-74
2021/05/17 05:21:15;;;;;;;4.27;3.87;;;;;;;12.20;100.00;99477.00;4915026;29;20243;-74
2021/05/17 05:23:45;;;;;;;6.20;4.20;;;;;;;12.41;100.00;99470.69;4899727;29;20217;-74
2021/05/17 05:29:04;;;;;;;5.87;4.27;;;;;;;12.40;100.00;99471.81;4918165;29;20263;-77
2021/05/17 05:31:40;;;;;;;4.30;3.67;;;;;;;12.10;100.00;99482.69;4900569;29;20234;-75
2021/05/17 05:34:08;;;;;;;4.40;4.00;;;;;;;12.02;100.00;99476.06;4917198;29;20238;-74
2021/05/17 05:36:39;;;;;;;4.57;4.17;;;;;;;12.07;100.00;99478.66;4915520;29;20223;-73
2021/05/17 05:39:07;;;;;;;4.53;4.13;;;;;;;12.02;100.00;99476.06;4900738;29;20234;-75
2021/05/17 05:41:32;;;;;;;5.23;4.73;;;;;;;11.99;100.00;99471.22;4930837;29;20746;-74
2021/05/17 05:44:00;;;;;;;4.83;4.43;;;;;;;12.24;100.00;99470.59;4930731;29;20235;-76
2021/05/17 05:46:28;;;;;;;5.50;5.00;;;;;;;12.15;100.00;99480.63;4915549;29;20294;-77
2021/05/17 05:48:57;;;;;;;5.57;4.93;;;;;;;12.08;100.00;99477.53;4900588;29;20196;-74
2021/05/17 05:51:25;;;;;;;5.10;4.60;;;;;;;12.16;100.00;99484.97;4933929;29;20231;-75
2021/05/17 05:53:53;;;;;;;5.33;4.83;;;;;;;12.49;100.00;99480.81;4903019;29;20199;-74
2021/05/17 05:56:21;;;;;;;7.33;4.93;;;;;;;12.32;100.00;99483.44;4918590;29;20224;-74
2021/05/17 05:58:49;;;;;;;5.47;4.93;;;;;;;12.61;100.00;99470.16;4919502;29;20187;-75
2021/05/17 06:01:19;;;;;;;5.60;5.00;;;;;;;12.73;100.00;99482.88;4936572;28;20747;-76
2021/05/17 06:03:48;;;;;;;5.60;4.77;;;;;;;12.81;100.00;99482.13;4903201;29;20238;-78
2021/05/17 06:06:13;;;;;;;5.33;4.77;;;;;;;12.88;100.00;99498.03;4935380;29;20290;-75
2021/05/17 06:08:43;;;;;;;5.90;5.07;;;;;;;12.95;100.00;99496.44;4919948;29;20203;-74
2021/05/17 06:11:11;;;;;;;7.03;5.00;;;;;;;12.93;100.00;99493.25;4919284;29;20242;-75
2021/05/17 06:13:42;;;;;;;6.87;4.53;;;;;;;13.00;100.00;99487.31;4919385;29;20190;-74
2021/05/17 06:16:11;;;;;;;5.43;4.50;;;;;;;12.96;100.00;99487.13;4936033;29;20234;-74
2021/05/17 06:18:40;;;;;;;6.13;5.17;;;;;;;13.13;100.00;99495.38;4919924;29;20255;-75
2021/05/17 06:21:08;;;;;;;5.90;5.30;;;;;;;13.13;100.00;99498.91;4919638;29;20254;-74
2021/05/17 06:23:35;;;;;;;6.00;5.50;;;;;;;13.37;100.00;99507.47;4918642;29;20708;-75
2021/05/17 06:26:05;;;;;;;7.53;5.27;;;;;;;13.59;100.00;99501.91;4903596;29;20742;-73
2021/05/17 06:28:34;;;;;;;5.00;4.50;;;;;;;13.63;100.00;99502.84;4919637;29;20298;-74
2021/05/17 06:31:05;;;;;;;6.23;4.90;;;;;;;13.34;100.00;99505.38;4919058;29;20697;-74
2021/05/17 06:33:31;;;;;;;7.13;4.43;;;;;;;13.88;100.00;99516.50;4887654;29;20686;-76
2021/05/17 06:35:59;;;;;;;5.60;4.37;;;;;;;13.63;100.00;99514.56;4903366;29;20309;-73
2021/05/17 06:38:25;;;;;;;4.87;4.10;;;;;;;13.79;100.00;99517.63;4919059;29;20194;-74
2021/05/17 06:40:53;;;;;;;4.83;4.33;;;;;;;14.06;100.00;99512.66;4918737;29;20227;-74
2021/05/17 06:43:19;;;;;;;6.03;4.50;;;;;;;13.92;100.00;99517.47;4934280;29;20207;-74
2021/05/17 06:45:50;;;;;;;4.73;4.23;;;;;;;13.94;100.00;99510.56;4902768;29;20223;-73
2021/05/17 06:48:18;;;;;;;5.93;4.67;;;;;;;14.05;100.00;99516.53;4919756;29;20218;-75
2021/05/17 06:50:46;;;;;;;4.83;4.33;;;;;;;14.41;100.00;99520.50;4918805;29;20627;-75
2021/05/17 06:53:15;;;;;;;5.27;4.23;;;;;;;13.81;100.00;99521.66;4934625;29;20192;-73
2021/05/17 06:58:34;;;;;;;5.63;4.23;;;;;;;14.37;100.00;99514.88;4906271;29;20323;-74
2021/05/17 07:01:00;;;;;;;4.23;3.80;;;;;;;14.29;100.00;99523.88;4934955;29;20701;-75
2021/05/17 07:03:28;;;;;;;4.00;3.60;;;;;;;14.23;100.00;99524.41;4902908;29;20262;-76
2021/05/17 07:05:55;;;;;;;5.30;3.70;;;;;;;14.35;100.00;99525.31;4904371;29;20220;-74
2021/05/17 07:13:54;;;;;;;5.33;3.40;;;;;;;14.27;100.00;99537.06;4917748;29;20210;-74
2021/05/17 07:16:21;;;;;;;3.50;3.20;;;;;;;14.74;100.00;99542.28;4897430;29;20713;-76
2021/05/17 07:18:47;;;;;;;3.43;2.80;;;;;;;14.46;97.41;99532.06;4945093;29;20191;-73
2021/05/17 07:23:41;;;;;;;3.00;2.63;;;;;;;14.84;99.45;99538.41;4905291;29;20624;-74
2021/05/17 07:26:15;;;;;;;3.40;2.93;;;;;;;15.00;95.33;99538.31;4919878;29;20231;-74
2021/05/17 07:28:46;;;;;;;4.53;2.70;;;;;;;14.94;92.61;99535.28;4905925;29;20207;-75
2021/05/17 07:31:11;;;;;;;3.97;2.30;;;;;;;14.79;90.81;99533.09;4905603;29;20262;-74
2021/05/17 07:33:40;;;;;;;3.13;2.70;;;;;;;14.92;93.00;99532.88;4872569;29;20654;-74
2021/05/17 07:36:08;;;;;;;2.57;2.00;;;;;;;14.87;91.41;99532.25;4887851;29;20227;-75
2021/05/17 07:38:36;;;;;;;3.20;2.10;;;;;;;14.74;91.04;99534.09;4889628;29;20192;-76
2021/05/17 07:41:03;;;;;;;2.50;2.23;;;;;;;14.81;90.36;99536.31;4902568;29;20309;-73
2021/05/17 07:43:34;;;;;;;3.33;2.03;;;;;;;15.16;88.12;99536.69;4918445;29;20306;-76
2021/05/17 07:46:02;;;;;;;3.20;2.33;;;;;;;15.18;87.14;99526.22;4902325;29;20235;-75
2021/05/17 07:48:30;;;;;;;5.13;2.00;;;;;;;15.31;87.14;99525.19;4902924;29;20184;-74
2021/05/17 07:50:55;;;;;;;2.57;1.73;;;;;;;15.13;82.53;99534.59;4887198;29;20243;-75
2021/05/17 07:53:21;;;;;;;2.77;1.67;;;;;;;15.46;83.66;99533.63;4901631;29;20191;-74
2021/05/17 07:55:51;;;;;;;2.87;1.70;;;;;;;15.38;82.51;99541.88;4886479;29;20606;-73
2021/05/17 07:58:16;;;;;;;2.87;1.60;;;;;;;15.41;81.24;99535.75;4918819;29;20202;-73
2021/05/17 08:00:42;;;;;;;2.85;1.60;;;;;;;15.42;80.20;99529.16;4901447;29;20686;-76
2021/05/17 08:03:07;;;;;;;2.30;1.20;;;;;;;15.42;77.28;99529.94;4901024;29;20212;-75
2021/05/17 08:05:35;;;;;;;2.97;1.30;;;;;;;15.74;73.50;99533.94;4885831;29;20227;-72
2021/05/17 08:08:06;;;;;;;2.27;1.13;;;;;;;16.10;74.79;99532.16;4918053;29;20214;-73
2021/05/17 08:10:31;;;;;;;2.30;1.13;;;;;;;16.32;72.98;99536.19;4917201;29;20286;-75
2021/05/17 08:12:59;;;;;;;2.60;1.27;;;;;;;16.13;74.73;99526.81;4885653;29;20183;-74
2021/05/17 08:15:27;;;;;;;2.22;1.40;;;;;;;16.56;76.85;99535.50;4934092;29;20255;-74
2021/05/17 08:17:53;;;;;;;2.30;1.50;;;;;;;16.91;72.97;99530.09;4886437;29;20187;-74
2021/05/17 08:20:22;;;;;;;2.40;1.50;;;;;;;16.65;72.74;99535.06;4917037;29;20194;-74
2021/05/17 08:22:49;;;;;;;2.53;1.60;;;;;;;16.89;71.71;99537.06;4933234;29;20246;-74
2021/05/17 08:25:14;;;;;;;3.25;1.40;;;;;;;17.14;71.87;99536.72;4917061;29;20634;-74
2021/05/17 08:27:40;;;;;;;3.38;1.80;;;;;;;17.21;66.44;99520.53;4934607;29;20226;-74
2021/05/17 08:30:06;;;;;;;2.40;1.38;;;;;;;16.74;68.97;99538.50;4918113;29;20203;-78
2021/05/17 08:32:34;;;;;;;3.70;1.73;;;;;;;16.56;68.81;99535.50;4900779;29;20226;-75
2021/05/17 08:35:00;;;;;;;2.75;1.30;;;;;;;17.19;68.59;99534.59;4901810;29;20188;-74
2021/05/17 08:37:25;;;;;;;2.75;1.50;;;;;;;16.78;67.08;99539.44;4888722;29;20235;-75
2021/05/17 08:39:53;;;;;;;1.95;1.40;;;;;;;16.56;69.41;99537.09;4917634;29;20219;-74
2021/05/17 08:42:26;;;;;;;1.80;1.58;;;;;;;16.59;68.54;99544.66;4901010;29;20243;-74
2021/05/17 08:44:55;;;;;;;3.42;1.90;;;;;;;16.48;71.64;99534.41;4888144;29;20299;-75
2021/05/17 08:47:25;;;;;;;2.60;1.95;;;;;;;16.54;69.56;99537.75;4900910;29;20227;-76
2021/05/17 08:49:53;;;;;;;3.20;1.90;;;;;;;16.32;71.04;99546.38;4886607;29;20677;-76
2021/05/17 08:52:21;;;;;;;2.78;1.90;;;;;;;16.79;72.19;99540.22;4900120;29;20317;-74
2021/05/17 08:54:49;;;;;;;3.55;2.15;;;;;;;16.46;71.68;99541.38;4885856;29;20196;-74
2021/05/17 08:57:20;;;;;;;3.28;2.15;;;;;;;16.04;73.63;99544.47;4916541;29;20227;-75
2021/05/17 08:59:45;;;;;;;3.20;2.08;;;;;;;15.85;75.50;99553.16;4885736;29;20218;-73
2021/05/17 09:02:13;;;;;;;2.92;2.00;;;;;;;16.00;77.11;99560.78;4883682;29;20686;-75
2021/05/17 09:04:39;;;;;;;3.60;2.97;;;;;;;16.41;73.30;99555.28;4869472;29;20307;-74
2021/05/17 09:07:04;;;;;;;3.80;3.28;;;;;;;16.38;75.72;99555.97;4866638;29;20718;-75
2021/05/17 09:09:30;;;;;;;4.80;3.70;;;;;;;16.64;74.52;99560.84;4898244;29;20734;-74
2021/05/17 09:12:02;;;;;;;4.60;4.18;;;;;;;16.71;72.74;99566.59;4896553;29;20236;-77
2021/05/17 09:14:28;;;;;;;6.25;4.93;;;;;;;16.63;71.24;99559.28;4898606;29;20200;-74
2021/05/17 09:17:00;;;;;;;5.47;4.43;;;;;;;16.34;73.46;99566.03;4897898;29;20228;-75
2021/05/17 09:19:26;;;;;;;5.00;4.20;;;;;;;16.72;73.36;99562.72;4882353;29;20224;-75
2021/05/17 09:22:01;;;;;;;5.65;4.38;;;;;;;16.85;73.75;99561.63;4881677;29;20868;-74
2021/05/17 09:24:37;;;;;;;4.82;4.35;;;;;;;17.11;73.01;99559.38;4899102;29;20213;-74
2021/05/17 09:27:06;;;;;;;6.55;5.30;;;;;;;17.13;72.47;99566.13;4900784;29;20224;-75
2021/05/17 09:29:58;;;;;;;6.85;5.72;;;;;;;16.76;73.70;99569.13;4886842;29;20176;-74
2021/05/17 09:32:32;;;;;;;6.28;5.68;;;;;;;16.50;74.56;99566.97;4881320;29;20235;-74
2021/05/17 09:35:10;;;;;;;6.90;6.10;;;;;;;16.21;78.84;99572.59;4902361;29;20169;-75
2021/05/17 09:37:52;;;;;;;6.55;5.95;;;;;;;16.07;78.34;99566.53;4901089;29;20235;-74
2021/05/17 09:40:21;;;;;;;7.72;6.07;;;;;;;15.99;79.05;99574.81;4917069;29;20275;-76
2021/05/17 09:43:02;;;;;;;7.10;6.32;;;;;;;16.30;79.78;99565.06;4899844;29;20255;-74
2021/05/17 09:45:32;;;;;;;6.78;6.18;;;;;;;16.70;79.28;99565.00;4916170;29;20477;-73
2021/05/17 09:47:57;;;;;;;8.85;7.35;;;;;;;16.89;78.72;99573.50;4885641;29;20609;-75
2021/05/17 09:50:25;;;;;;;8.52;7.45;;;;;;;16.62;77.77;99556.88;4884639;29;20242;-75
2021/05/17 09:52:53;;;;;;;8.52;7.43;;;;;;;17.05;77.19;99563.47;4899541;29;20212;-73
2021/05/17 09:55:21;;;;;;;8.18;6.15;;;;;;;17.28;75.43;99570.19;4899934;29;20275;-75
2021/05/17 09:57:47;;;;;;;8.75;7.85;;;;;;;16.72;74.88;99567.41;4900627;29;20211;-76
2021/05/17 10:00:18;;;;;;;8.30;7.45;;;;;;;16.10;76.69;99559.56;4899808;29;20191;-74
2021/05/17 10:02:48;;;;;;;6.55;5.95;;;;;;;16.36;72.36;99564.53;4915545;29;20328;-76
2021/05/17 10:05:23;;;;;;;5.78;4.80;;;;;;;16.94;69.86;99570.56;4885271;29;20200;-75
2021/05/17 10:07:54;;;;;;;6.03;5.53;;;;;;;17.08;69.15;99565.53;4900513;29;20215;-75
2021/05/17 10:10:21;;;;;;;7.45;5.80;;;;;;;17.12;70.47;99559.03;4884131;29;20272;-75
2021/05/17 10:12:46;;;;;;;5.75;4.63;;;;;;;16.97;69.60;99570.66;4883778;29;20187;-74
2021/05/17 10:15:13;;;;;;;6.57;5.38;;;;;;;16.52;74.18;99572.94;4884273;29;20192;-75
2021/05/17 10:17:39;;;;;;;6.15;5.55;;;;;;;16.25;82.36;99576.25;4900857;29;20180;-73
2021/05/17 10:20:10;;;;;;;5.57;5.07;;;;;;;16.01;85.11;99584.31;4885071;29;20192;-76
2021/05/17 10:22:41;;;;;;;5.40;4.90;;;;;;;15.76;89.36;99578.19;4899225;29;20222;-73
2021/05/17 10:25:09;;;;;;;5.78;5.25;;;;;;;15.55;91.12;99585.59;4884718;29;20248;-74
2021/05/17 10:27:52;;;;;;;6.88;5.60;;;;;;;15.79;94.79;99581.88;4901476;29;20177;-74
2021/05/17 10:30:22;;;;;;;6.28;5.78;;;;;;;15.84;92.76;99578.13;4899480;29;20188;-74
2021/05/17 10:32:51;;;;;;;7.03;6.00;;;;;;;15.98;93.24;99565.78;4900122;29;20185;-76
2021/05/17 10:35:18;;;;;;;8.45;6.38;;;;;;;16.11;95.45;99561.19;4900527;29;20284;-74
2021/05/17 10:37:46;;;;;;;5.70;5.20;;;;;;;16.30;90.60;99568.63;4885137;29;20215;-74
2021/05/17 10:40:32;;;;;;;5.05;4.40;;;;;;;16.89;83.16;99568.03;4884631;29;20203;-75
2021/05/17 10:48:28;;;;;;;4.55;3.78;;;;;;;18.19;76.42;99559.00;4901879;29;20661;-75
2021/05/17 10:51:19;;;;;;;3.70;3.40;;;;;;;18.17;70.90;99562.09;4885257;29;20228;-75
2021/05/17 10:53:47;;;;;;;3.40;3.10;;;;;;;18.23;70.53;99566.19;4899435;29;20628;-74
2021/05/17 10:56:14;;;;;;;4.00;2.90;;;;;;;17.81;70.32;99561.34;4915418;29;20287;-75
2021/05/17 11:02:01;;;;;;;3.65;2.70;;;;;;;17.62;70.59;99560.34;4885412;29;20311;-75
2021/05/17 11:04:39;;;;;;;3.35;2.42;;;;;;;17.58;70.89;99570.41;4916115;29;20224;-75
2021/05/17 11:07:14;;;;;;;3.55;2.55;;;;;;;17.33;69.28;99568.81;4898883;29;20386;-74
2021/05/17 11:09:49;;;;;;;3.55;2.28;;;;;;;17.07;69.65;99575.72;4899808;29;20869;-74
2021/05/17 11:12:29;;;;;;;4.10;2.90;;;;;;;17.12;69.08;99572.78;4898682;29;20661;-75
2021/05/17 11:15:04;;;;;;;3.60;2.90;;;;;;;16.66;71.84;99575.03;4919275;29;20921;-76
2021/05/17 11:17:32;;;;;;;2.85;2.55;;;;;;;16.76;73.64;99577.38;4916303;29;20657;-74
2021/05/17 11:19:57;;;;;;;2.25;2.05;;;;;;;16.96;66.25;99571.81;4883433;29;20643;-75
2021/05/17 11:22:51;;;;;;;2.30;2.10;;;;;;;16.90;67.43;99574.31;4898172;29;20242;-76
2021/05/17 11:25:17;;;;;;;2.75;1.80;;;;;;;17.54;66.61;99568.69;4899017;29;20562;-74
2021/05/17 11:27:46;;;;;;;1.92;1.63;;;;;;;18.00;63.94;99571.72;4883907;29;20266;-74
2021/05/17 11:30:40;;;;;;;2.10;1.17;;;;;;;18.07;55.92;99564.50;4898954;29;20192;-74
2021/05/17 11:33:16;;;;;;;1.30;1.20;;;;;;;17.87;57.46;99567.41;4898718;29;20191;-74
2021/05/17 11:36:03;;;;;;;1.95;1.50;;;;;;;17.56;59.99;99569.94;4883383;29;20231;-76
2021/05/17 11:38:31;;;;;;;1.38;1.10;;;;;;;18.13;59.42;99563.94;4914541;29;20192;-75
2021/05/17 11:40:57;;;;;;;1.75;1.30;;;;;;;18.70;58.83;99569.88;4883153;29;20239;-75
2021/05/17 11:43:23;;;;;;;1.50;1.30;;;;;;;19.24;57.95;99569.81;4898147;29;20220;-76
2021/05/17 11:45:51;;;;;;;1.08;1.08;;;;;;;19.29;55.67;99567.59;4899130;29;20234;-75
2021/05/17 11:48:17;;;;;;;1.60;1.40;;;;;;;18.57;55.19;99571.09;4883119;29;20188;-75
2021/05/17 11:50:44;;;;;;;2.30;1.75;;;;;;;18.96;54.92;99568.28;4883546;29;20228;-75
2021/05/17 11:53:18;;;;;;;2.17;1.40;;;;;;;18.90;54.13;99570.47;4882354;29;20200;-73
2021/05/17 11:55:48;;;;;;;2.60;1.70;;;;;;;18.96;54.95;99563.56;4882692;29;20701;-74
2021/05/17 11:58:24;;;;;;;1.38;1.27;;;;;;;18.83;53.27;99564.00;4898710;29;20191;-75
2021/05/17 12:01:16;;;;;;;1.35;1.20;;;;;;;18.72;55.99;99567.63;4913618;29;20315;-75
2021/05/17 12:03:44;;;;;;;1.50;1.40;;;;;;;19.33;53.31;99568.50;4897737;29;20216;-74
2021/05/17 12:06:09;;;;;;;1.45;1.27;;;;;;;19.63;53.14;99561.34;4882443;29;20725;-75
2021/05/17 12:08:40;;;;;;;1.60;1.50;;;;;;;19.73;51.55;99561.59;4898979;29;20184;-73